AirNav   Phillips 66 Aviation Fuel
 
 1545 users online  

1MO Mountain Grove Memorial Airport
Mountain Grove, Missouri, USA

GOING TO MOUNTAIN GROVE?


FAA INFORMATION EFFECTIVE 13 SEPTEMBER 2018

Location

FAA Identifier: 1MO
Lat/Long: 37-07-15.1011N / 092-18-36.3840W
37-07.251685N / 092-18.606400W
37.1208614 / -92.3101067
(estimated)
Elevation: 1476.4 ft. / 450.0 m (surveyed)
Variation: 01E (2010)
From city: 3 miles SW of MOUNTAIN GROVE, MO
Time zone: UTC -5 (UTC -6 during Standard Time)
Zip code: 65711

Airport Operations

Airport use: Open to the public
Control tower: no
ARTCC: KANSAS CITY CENTER
FSS: COLUMBIA FLIGHT SERVICE STATION
NOTAMs facility: COU (NOTAM-D service available)
Attendance: CONTINUOUS
Wind indicator: lighted
Segmented circle: yes
Lights: ACTVT REIL RWY 08 & 26; MIRL RWY 08/26 - CTAF.
Beacon: white-green (lighted land airport)
ROTG BCN ON WATER TOWER EAST OF ARPT. Operates sunset to sunrise.

Airport Communications

CTAF: 122.9
  • APCH/DEP SERVICE PROVIDED BY KANSAS CITY ARTCC ON FREQS 128.35/284.675 (RICHLAND RCAG).

Nearby radio navigation aids

VOR radial/distance  VOR name  Freq  Var
DGDr077/27.8DOGWOOD VORTAC109.4001E
MAPr215/37.6MAPLES VORTAC113.4006E
TBNr189/(38.2)FORNEY VOR110.0003E

 
NDB name  Hdg/Dist  Freq  Var  ID
BUCKHORN193/36.039103EBHN -... .... -.

Airport Services

Parking: tiedowns
Airframe service: MINOR
Powerplant service: MAJOR

Runway Information

Runway 8/26

Dimensions: 2922 x 60 ft. / 891 x 18 m
Surface: asphalt/rubberized friction seal coat, in excellent condition
Runway edge lights: medium intensity
Gradient: E.
RUNWAY 8  RUNWAY 26
Latitude: 37-07.214888N37-07.288480N
Longitude: 092-18.903510W092-18.309288W
Elevation: 1452.2 ft.1476.2 ft.
Gradient: 0.8% UP
Traffic pattern: leftleft
Runway heading: 080 magnetic, 081 true260 magnetic, 261 true
Markings: nonprecision, in good conditionnonprecision, in good condition
Visual slope indicator: 2-light PAPI on left (4.00 degrees glide path)2-light PAPI on left (4.00 degrees glide path)
Runway end identifier lights: yesyes
Touchdown point: yes, no lightsyes, no lights
Obstructions: 46 ft. trees, 307 ft. from runway, 2:1 slope to clear
RWY 8 HAS 18-51 FT TREES 0-200 FT FROM RWY END 150-228 FT R AND 195-200 FT L
15 ft. road, 285 ft. from runway, 250 ft. left and right of centerline, 5:1 slope to clear

Airport Ownership and Management from official FAA records

Ownership: Publicly-owned
Owner: CITY OF MOUNTAIN GROVE
100 E. STATE, P.O. BOX 351
MOUNTAIN GROVE, MO 65711
Phone 417-926-4162
Manager: TIM SCHOOK
100 E. STATE STREET
MOUNTAIN GROVE, MO 65711
Phone (417) 926-4162

Airport Operational Statistics

Aircraft based on the field: 10
Single engine airplanes: 9
Ultralights: 1
  • ULTRALIGHT ACTVTY ON & INVOF ARPT.
    
Aircraft operations: avg 53/week *
54% transient general aviation
46% local general aviation
* for 12-month period ending 31 December 2015

Additional Remarks

CROP DUSTING ACFT ON & INVOF ARPT.
NUMEROUS PART 77 OBSTRUCTIONS IN PRIMARY, APPROACH, & TRANSTIONAL SURFACES AROUND ENTIRE RY.

Instrument Procedures

NOTE: All procedures below are presented as PDF files. If you need a reader for these files, you should download the free Adobe Reader.

NOT FOR NAVIGATION. Please procure official charts for flight.
FAA instrument procedures published for use from 13 September 2018 at 0901Z to 11 October 2018 at 0900Z.

 
IAPs - Instrument Approach Procedures
RNAV (GPS) RWY 08 **CHANGED**   download (157KB)
RNAV (GPS) RWY 26 **CHANGED**   download (164KB)
NOTE: Special Take-Off Minimums/Departure Procedures apply   download (158KB)

Other nearby airports with instrument procedures:

KTVB - Cabool Memorial Airport (11 nm E)
KAOV - Ava Bill Martin Memorial Airport (20 nm SW)
M48 - Houston Memorial Airport (20 nm NE)
KUNO - West Plains Regional Airport (24 nm SE)
KMNF - Mountain View Airport (30 nm E)
 
Loc | Ops | Rwys | IFR | FBO | Links
Com | Nav | Svcs | Stats | Notes

Kansas City Aviation Department
 
Area around 1MO (Mountain Grove Memorial Airport)
 
Road maps at: MapQuest Bing Google
 
Aerial photo
WARNING: Photo may not be current or correct
Aerial photo of 1MO (Mountain Grove Memorial Airport)
Photo taken 06-Jan-2013
looking west southwest.

Do you have a better or more recent aerial photo of Mountain Grove Memorial Airport that you would like to share? If so, please send us your photo.

 
Sectional chart

 
Airport distance calculator
Flying to Mountain Grove Memorial Airport? Find the distance to fly.

From to 1MO

Sunrise and sunset
Times for 25-Sep-2018
 Local
(UTC-5)
 Zulu
(UTC)
Morning civil twilight06:3511:35
Sunrise07:0112:01
Sunset19:0100:01
Evening civil twilight19:2700:27

Current date and time
Zulu (UTC)  25-Sep-2018 18:18:59
Local (UTC-5)  25-Sep-2018 13:18:59
 
METAR
KUNO 
24nm SE 
251753Z AUTO 22006KT 10SM FEW026 FEW060 SCT075 27/20 A2998 RMK AO2 SLP139 T02670200 10267 20217 58004
KLBO 
36nm NW 
251755Z AUTO 21011G16KT 10SM SCT030 SCT035 27/18 A2997 RMK AO2
KTBN 
37nm N 
251756Z AUTO 23006KT 10SM FEW030 BKN065 26/19 A2994 RMK AO2 SLP132 T02640188 10265 20206 57005
KBPK 
46nm S 
251753Z AUTO 23006KT 10SM FEW029 BKN085 28/21 A2996 RMK AO2 SLP134 T02780211 10278 20206 58004 TSNO
TAF
KBPK 
46nm S 
251730Z 2518/2618 20008KT P6SM VCSH SCT020 BKN050 TEMPO 2518/2520 OVC020 FM260000 24005KT P6SM BKN250 FM260600 35008G16KT P6SM OVC050 FM261400 01012KT P6SM OVC025
NOTAMs
Click for the latest NOTAMs
NOTAMs are issued by the DoD/FAA and will open in a separate window not controlled by AirNav.

 

 
 

Would you like to see your business listed on this page?

 If your business provides an interesting product or service to pilots, flight crews, aircraft, or users of the Mountain Grove Memorial Airport, you should consider listing it here.  To start the listing process, click on the button below
 
Add a business
 

Other Pages about Mountain Grove Memorial Airport

Update a link
 
Copyright © AirNav, LLC. All rights reserved. Privacy Policy  Contact